createdAt,value
2019-04-25T00:01:32.960Z,23.73
2019-04-25T00:04:02.038Z,24.00
2019-04-25T00:06:32.134Z,24.57
2019-04-25T00:09:01.914Z,24.57
2019-04-25T00:11:31.279Z,24.12
2019-04-25T00:14:01.460Z,24.43
2019-04-25T00:16:31.658Z,24.57
2019-04-25T00:19:01.738Z,25.73
2019-04-25T00:21:38.243Z,24.05
2019-04-25T00:24:15.324Z,24.60
2019-04-25T00:26:46.239Z,24.57
2019-04-25T00:29:14.960Z,23.57
2019-04-25T00:31:44.847Z,22.62
2019-04-25T00:34:13.530Z,23.73
2019-04-25T00:36:43.476Z,22.93
2019-04-25T00:39:12.041Z,24.03
2019-04-25T00:41:41.728Z,23.67
2019-04-25T00:44:12.026Z,22.43
2019-04-25T00:46:43.294Z,24.07
2019-04-25T00:49:12.161Z,23.37
2019-04-25T00:51:42.671Z,22.63
2019-04-25T00:54:11.853Z,23.80
2019-04-25T00:56:43.273Z,25.15
2019-04-25T00:59:14.002Z,24.13
2019-04-25T01:02:01.425Z,24.80
2019-04-25T01:04:33.655Z,24.35
2019-04-25T01:07:02.089Z,25.05
2019-04-25T01:09:32.301Z,25.32
2019-04-25T01:12:03.900Z,23.73
2019-04-25T01:14:31.690Z,24.47
2019-04-25T01:17:01.754Z,23.70
2019-04-25T01:19:30.481Z,26.07
2019-04-25T01:21:59.028Z,23.98
2019-04-25T01:24:27.445Z,24.82
2019-04-25T01:26:55.929Z,24.45
2019-04-25T01:29:24.305Z,25.23
2019-04-25T01:31:54.139Z,23.83
2019-04-25T01:34:30.148Z,25.37
2019-04-25T01:37:05.981Z,24.52
2019-04-25T01:39:39.135Z,25.77
2019-04-25T01:42:13.714Z,24.57
2019-04-25T01:44:44.113Z,24.72
2019-04-25T01:47:14.135Z,24.18
2019-04-25T01:49:43.916Z,24.27
2019-04-25T01:52:13.641Z,23.55
2019-04-25T01:54:43.773Z,23.42
2019-04-25T01:57:14.287Z,25.08
2019-04-25T01:59:43.895Z,25.20
2019-04-25T02:02:14.139Z,24.05
2019-04-25T02:04:44.219Z,23.77
2019-04-25T02:07:13.480Z,23.80
2019-04-25T02:09:43.581Z,24.37
2019-04-25T02:12:15.476Z,23.85
2019-04-25T02:14:43.812Z,25.23
2019-04-25T02:17:14.033Z,24.40
2019-04-25T02:19:43.892Z,24.83
2019-04-25T02:22:12.429Z,26.47
2019-04-25T02:24:40.861Z,25.70
2019-04-25T02:27:09.276Z,26.00
2019-04-25T02:29:37.673Z,25.10
2019-04-25T02:32:09.109Z,25.95
2019-04-25T02:34:36.894Z,26.05
2019-04-25T02:37:09.461Z,26.95
2019-04-25T02:39:37.432Z,26.35
2019-04-25T02:42:08.269Z,27.30
2019-04-25T02:44:37.903Z,26.63
2019-04-25T02:47:24.860Z,25.73
2019-04-25T02:50:11.347Z,26.20
2019-04-25T02:52:41.337Z,27.98
2019-04-25T02:55:11.452Z,26.37
2019-04-25T02:57:39.852Z,28.03
2019-04-25T03:00:09.860Z,26.37
2019-04-25T03:02:38.288Z,28.23
2019-04-25T03:05:09.798Z,26.48
2019-04-25T03:07:36.882Z,27.33
2019-04-25T03:10:08.552Z,27.25
2019-04-25T03:12:36.834Z,26.73
2019-04-25T03:15:08.422Z,25.70
2019-04-25T03:17:35.617Z,29.10
2019-04-25T03:20:09.431Z,29.40
2019-04-25T03:22:36.210Z,28.45
2019-04-25T03:25:10.004Z,27.07
2019-04-25T03:27:35.692Z,27.25
2019-04-25T03:30:09.579Z,27.80
2019-04-25T03:32:35.684Z,27.30
2019-04-25T03:35:05.829Z,27.15
2019-04-25T03:37:35.241Z,28.07
2019-04-25T03:40:06.533Z,26.82
2019-04-25T03:42:35.532Z,27.25
2019-04-25T03:45:05.016Z,27.77
2019-04-25T03:47:34.325Z,26.85
2019-04-25T03:50:05.740Z,27.27
2019-04-25T03:52:33.309Z,28.65
2019-04-25T03:55:05.104Z,27.77
2019-04-25T03:57:33.189Z,29.40
2019-04-25T04:00:03.606Z,28.17
2019-04-25T04:02:32.073Z,28.27
2019-04-25T04:05:00.486Z,28.40
2019-04-25T04:07:28.927Z,28.55
2019-04-25T04:09:57.285Z,28.70
2019-04-25T04:12:25.689Z,27.67
2019-04-25T04:14:54.072Z,29.40
2019-04-25T04:17:30.236Z,29.85
2019-04-25T04:20:00.197Z,28.98
2019-04-25T04:22:46.704Z,29.07
2019-04-25T04:25:19.621Z,29.20
2019-04-25T04:27:48.070Z,28.23
2019-04-25T04:30:16.541Z,28.65
2019-04-25T04:32:44.920Z,30.12
2019-04-25T04:35:14.758Z,27.27
2019-04-25T04:37:43.427Z,29.53
2019-04-25T04:40:11.847Z,30.35
2019-04-25T04:42:59.699Z,27.37
2019-04-25T04:45:28.109Z,30.15
2019-04-25T04:47:59.194Z,28.60
2019-04-25T04:50:27.569Z,29.23
2019-04-25T04:52:55.989Z,29.12
2019-04-25T04:55:24.512Z,28.92
2019-04-25T04:57:54.261Z,29.63
2019-04-25T05:00:24.670Z,28.30
2019-04-25T05:02:57.717Z,29.90
2019-04-25T05:05:30.414Z,29.60
2019-04-25T05:07:59.444Z,29.05
2019-04-25T05:10:27.903Z,30.23
2019-04-25T05:12:56.302Z,29.45
2019-04-25T05:15:24.948Z,28.73
2019-04-25T05:17:59.461Z,29.15
2019-04-25T05:20:27.919Z,29.32
2019-04-25T05:22:56.340Z,28.95
2019-04-25T05:25:24.874Z,28.07
2019-04-25T05:28:00.776Z,26.57
2019-04-25T05:30:26.602Z,28.17
2019-04-25T05:32:54.992Z,27.30
2019-04-25T05:35:24.302Z,29.95
2019-04-25T05:37:53.466Z,28.73
2019-04-25T05:40:22.676Z,27.17
2019-04-25T05:42:56.217Z,28.57
2019-04-25T05:45:26.236Z,28.65
2019-04-25T05:47:54.668Z,27.33
2019-04-25T05:50:24.221Z,28.32
2019-04-25T05:52:54.129Z,27.90
2019-04-25T05:55:24.200Z,28.60
2019-04-25T05:57:53.648Z,28.73
2019-04-25T06:00:24.312Z,27.67
2019-04-25T06:02:53.325Z,29.50
2019-04-25T06:05:23.385Z,28.60
2019-04-25T06:07:51.989Z,28.43
2019-04-25T06:10:27.965Z,27.30
2019-04-25T06:13:13.775Z,27.00
2019-04-25T06:15:43.969Z,28.05
2019-04-25T06:18:19.938Z,28.50
2019-04-25T06:20:48.345Z,27.22
2019-04-25T06:23:34.961Z,26.95
2019-04-25T06:26:17.110Z,26.42
2019-04-25T06:28:34.599Z,25.80
2019-04-25T06:31:10.042Z,25.17
2019-04-25T06:33:35.019Z,28.10
2019-04-25T06:36:04.126Z,23.62
2019-04-25T06:38:33.464Z,24.85
2019-04-25T06:41:03.566Z,24.02
2019-04-25T06:43:34.108Z,21.77
2019-04-25T06:46:07.224Z,22.57
2019-04-25T06:48:37.224Z,22.27
2019-04-25T06:51:05.675Z,23.67
2019-04-25T06:53:34.648Z,21.42
2019-04-25T06:56:03.572Z,20.37
2019-04-25T06:58:32.229Z,19.67
2019-04-25T07:01:03.412Z,19.27
2019-04-25T07:03:34.364Z,19.33
2019-04-25T07:06:03.245Z,18.27
2019-04-25T07:08:31.765Z,15.55
2019-04-25T07:11:00.212Z,13.65
2019-04-25T07:13:28.627Z,15.23
2019-04-25T07:15:57.073Z,13.03
2019-04-25T07:18:30.254Z,13.35
2019-04-25T07:20:55.579Z,12.58
2019-04-25T07:23:25.358Z,12.13
2019-04-25T07:25:55.816Z,10.88
2019-04-25T07:28:29.067Z,11.00
2019-04-25T07:31:09.724Z,8.78
2019-04-25T07:33:39.735Z,8.98
2019-04-25T07:36:08.166Z,9.65
2019-04-25T07:38:36.603Z,9.68
2019-04-25T07:41:05.032Z,10.18
2019-04-25T07:43:34.145Z,8.83
2019-04-25T07:46:03.688Z,8.10
2019-04-25T07:48:33.685Z,7.22
2019-04-25T07:51:03.627Z,7.65
2019-04-25T07:53:34.599Z,8.13
2019-04-25T07:56:04.148Z,7.30
2019-04-25T07:58:48.050Z,6.83
2019-04-25T08:01:08.065Z,7.03
2019-04-25T08:03:36.547Z,7.75
2019-04-25T08:06:05.225Z,6.95
2019-04-25T08:08:33.986Z,6.53
2019-04-25T08:11:05.351Z,7.08
2019-04-25T08:13:42.264Z,8.18
2019-04-25T08:16:14.577Z,7.40
2019-04-25T08:18:43.410Z,7.22
2019-04-25T08:21:11.921Z,7.53
2019-04-25T08:23:40.340Z,7.85
2019-04-25T08:26:08.762Z,6.97
2019-04-25T08:28:50.091Z,7.03
2019-04-25T08:31:07.252Z,7.25
2019-04-25T08:33:36.872Z,7.55
2019-04-25T08:36:09.176Z,8.07
2019-04-25T08:38:36.106Z,7.28
2019-04-25T08:41:04.810Z,7.55
2019-04-25T08:43:36.360Z,7.50
2019-04-25T08:46:04.195Z,7.28
2019-04-25T08:48:50.961Z,6.95
2019-04-25T08:51:19.381Z,6.92
2019-04-25T08:54:01.029Z,6.55
2019-04-25T08:56:31.884Z,7.00
2019-04-25T08:59:07.964Z,6.75
2019-04-25T09:01:39.390Z,7.20
2019-04-25T09:04:14.279Z,6.60
2019-04-25T09:06:44.159Z,6.35
2019-04-25T09:09:13.692Z,6.83
2019-04-25T09:11:45.930Z,7.17
2019-04-25T09:14:13.469Z,6.42
2019-04-25T09:16:43.927Z,6.40
2019-04-25T09:19:12.064Z,7.30
2019-04-25T09:21:44.515Z,6.17
2019-04-25T09:24:10.575Z,6.42
2019-04-25T09:26:39.853Z,4.92
2019-04-25T09:29:16.823Z,5.57
2019-04-25T09:31:40.110Z,8.50
2019-04-25T09:34:08.984Z,5.90
2019-04-25T09:36:37.705Z,5.87
2019-04-25T09:39:09.241Z,5.60
2019-04-25T09:41:37.882Z,5.60
2019-04-25T09:44:07.993Z,5.40
2019-04-25T09:46:37.408Z,5.65
2019-04-25T09:49:10.332Z,5.90
2019-04-25T09:51:44.586Z,5.58
2019-04-25T09:54:31.305Z,6.15
2019-04-25T09:57:17.655Z,6.55
2019-04-25T09:59:46.205Z,5.90
2019-04-25T10:02:14.728Z,5.50
2019-04-25T10:04:45.133Z,6.35
2019-04-25T10:07:14.291Z,6.00
2019-04-25T10:09:44.611Z,6.10
2019-04-25T10:12:14.597Z,6.22
2019-04-25T10:14:45.243Z,6.37
2019-04-25T10:17:14.794Z,6.35
2019-04-25T10:19:43.511Z,6.37
2019-04-25T10:22:13.572Z,5.65
2019-04-25T10:24:42.686Z,5.95
2019-04-25T10:27:11.227Z,6.80
2019-04-25T10:29:47.284Z,5.97
2019-04-25T10:32:09.733Z,6.10
2019-04-25T10:34:38.175Z,6.22
2019-04-25T10:37:07.097Z,5.95
2019-04-25T10:39:35.525Z,6.42
2019-04-25T10:42:03.964Z,5.78
2019-04-25T10:44:33.883Z,5.85
2019-04-25T10:47:02.642Z,6.08
2019-04-25T10:49:31.053Z,6.47
2019-04-25T10:51:59.706Z,5.47
2019-04-25T10:54:28.139Z,6.40
2019-04-25T10:56:56.578Z,5.62
2019-04-25T10:59:25.002Z,6.40
2019-04-25T11:01:55.053Z,5.62
2019-04-25T11:04:28.384Z,5.17
2019-04-25T11:06:56.800Z,5.12
2019-04-25T11:09:26.809Z,5.95
2019-04-25T11:11:55.217Z,5.83
2019-04-25T11:14:24.012Z,4.65
2019-04-25T11:16:54.970Z,5.15
2019-04-25T11:19:23.871Z,4.92
2019-04-25T11:21:53.827Z,4.17
2019-04-25T11:24:23.718Z,5.27
2019-04-25T11:26:54.171Z,4.72
2019-04-25T11:29:23.804Z,4.65
2019-04-25T11:31:53.322Z,4.72
2019-04-25T11:34:22.879Z,5.85
2019-04-25T11:36:51.674Z,4.40
2019-04-25T11:39:33.724Z,4.53
2019-04-25T11:42:02.271Z,4.17
2019-04-25T11:44:30.684Z,4.55
2019-04-25T11:46:59.125Z,4.03
2019-04-25T11:49:27.545Z,3.70
2019-04-25T11:51:55.983Z,4.00
2019-04-25T11:54:24.436Z,4.22
2019-04-25T11:56:54.660Z,3.90
2019-04-25T11:59:23.507Z,3.42
2019-04-25T12:01:52.408Z,5.35
2019-04-25T12:04:20.827Z,4.67
2019-04-25T12:06:49.269Z,5.05
2019-04-25T12:09:17.843Z,4.65
2019-04-25T12:11:47.198Z,4.83
2019-04-25T12:14:16.509Z,4.65
2019-04-25T12:16:48.466Z,4.80
2019-04-25T12:19:14.967Z,4.40
2019-04-25T12:21:44.499Z,4.45
2019-04-25T12:24:13.770Z,4.50
2019-04-25T12:26:45.274Z,4.83
2019-04-25T12:29:14.207Z,5.40
2019-04-25T12:31:44.235Z,4.90
2019-04-25T12:34:14.183Z,5.72
2019-04-25T12:36:44.315Z,4.25
2019-04-25T12:39:14.143Z,5.70
2019-04-25T12:41:44.237Z,5.58
2019-04-25T12:44:14.429Z,6.47
2019-04-25T12:46:48.494Z,6.95
2019-04-25T12:49:16.950Z,6.20
2019-04-25T12:51:45.484Z,5.00
2019-04-25T12:54:15.018Z,5.10
2019-04-25T12:56:43.466Z,5.58
2019-04-25T12:59:11.895Z,5.85
2019-04-25T13:01:40.330Z,6.08
2019-04-25T13:04:08.844Z,5.55
2019-04-25T13:06:37.280Z,6.42
2019-04-25T13:09:07.091Z,5.78
2019-04-25T13:11:35.852Z,5.42
2019-04-25T13:14:04.356Z,5.08
2019-04-25T13:16:34.158Z,5.60
2019-04-25T13:19:14.379Z,4.83
2019-04-25T13:21:33.399Z,5.35
2019-04-25T13:24:02.979Z,5.37
2019-04-25T13:26:33.719Z,5.10
2019-04-25T13:29:16.114Z,5.70
2019-04-25T13:31:58.577Z,5.05
2019-04-25T13:34:36.298Z,5.35
2019-04-25T13:36:58.799Z,5.62
2019-04-25T13:39:27.743Z,5.05
2019-04-25T13:41:58.382Z,5.55
2019-04-25T13:44:26.255Z,6.37
2019-04-25T13:46:54.700Z,5.87
2019-04-25T13:49:23.120Z,5.60
2019-04-25T13:51:51.569Z,8.58
2019-04-25T13:54:20.909Z,5.37
2019-04-25T13:57:09.597Z,6.00
2019-04-25T13:59:38.012Z,5.25
2019-04-25T14:02:11.734Z,6.37
2019-04-25T14:04:40.152Z,6.20
2019-04-25T14:07:09.097Z,5.87
2019-04-25T14:09:37.512Z,5.50
2019-04-25T14:12:06.457Z,6.20
2019-04-25T14:14:36.051Z,6.37
2019-04-25T14:17:15.796Z,6.17
2019-04-25T14:19:45.779Z,6.90
2019-04-25T14:22:14.225Z,5.58
2019-04-25T14:24:44.005Z,5.92
2019-04-25T14:27:13.638Z,6.12
2019-04-25T14:29:43.717Z,5.42
2019-04-25T14:32:13.852Z,5.87
2019-04-25T14:34:43.287Z,5.10
2019-04-25T14:37:11.930Z,6.10
2019-04-25T14:39:40.364Z,5.55
2019-04-25T14:42:08.785Z,5.92
2019-04-25T14:44:37.226Z,6.08
2019-04-25T14:47:05.649Z,5.67
2019-04-25T14:49:34.097Z,5.25
2019-04-25T14:52:02.464Z,5.37
2019-04-25T14:54:32.692Z,5.72
2019-04-25T14:57:05.776Z,5.75
2019-04-25T14:59:34.197Z,6.42
2019-04-25T15:02:02.620Z,6.28
2019-04-25T15:04:33.118Z,6.40
2019-04-25T15:07:01.684Z,6.75
2019-04-25T15:09:30.301Z,5.60
2019-04-25T15:11:58.691Z,6.33
2019-04-25T15:14:27.114Z,6.85
2019-04-25T15:16:55.527Z,7.10
2019-04-25T15:19:24.231Z,7.12
2019-04-25T15:21:52.869Z,7.08
2019-04-25T15:24:21.285Z,6.53
2019-04-25T15:26:49.729Z,6.58
2019-04-25T15:29:18.148Z,7.08
2019-04-25T15:31:55.728Z,6.05
2019-04-25T15:34:16.653Z,5.70
2019-04-25T15:36:46.657Z,7.95
2019-04-25T15:39:19.336Z,6.95
2019-04-25T15:41:49.353Z,6.78
2019-04-25T15:44:31.115Z,7.25
2019-04-25T15:47:01.129Z,6.03
2019-04-25T15:49:29.572Z,7.00
2019-04-25T15:51:58.019Z,7.03
2019-04-25T15:54:26.506Z,7.17
2019-04-25T15:56:56.008Z,7.37
2019-04-25T15:59:24.401Z,6.45
2019-04-25T16:01:52.807Z,7.17
2019-04-25T16:04:21.246Z,8.18
2019-04-25T16:06:49.626Z,7.03
2019-04-25T16:09:18.064Z,6.92
2019-04-25T16:11:46.554Z,7.12
2019-04-25T16:14:15.033Z,8.13
2019-04-25T16:16:43.472Z,7.85
2019-04-25T16:19:11.904Z,7.35
2019-04-25T16:21:42.147Z,7.75
2019-04-25T16:24:10.655Z,6.97
2019-04-25T16:26:39.125Z,7.47
2019-04-25T16:29:07.538Z,7.55
2019-04-25T16:31:36.751Z,7.35
2019-04-25T16:34:05.213Z,8.05
2019-04-25T16:36:33.668Z,8.18
2019-04-25T16:39:02.192Z,7.97
2019-04-25T16:41:31.521Z,7.67
2019-04-25T16:44:01.528Z,7.87
2019-04-25T16:46:30.789Z,8.80
2019-04-25T16:48:59.272Z,8.00
2019-04-25T16:51:28.324Z,7.65
2019-04-25T16:53:56.948Z,8.38
2019-04-25T16:56:25.367Z,9.05
2019-04-25T16:58:53.812Z,7.53
2019-04-25T17:01:22.196Z,7.83
2019-04-25T17:03:50.612Z,9.30
2019-04-25T17:06:19.109Z,8.85
2019-04-25T17:08:47.579Z,7.83
2019-04-25T17:11:16.352Z,7.87
2019-04-25T17:13:46.332Z,7.83
2019-04-25T17:16:32.617Z,7.50
2019-04-25T17:19:17.641Z,8.85
2019-04-25T17:21:46.072Z,8.48
2019-04-25T17:24:14.515Z,9.15
2019-04-25T17:26:42.942Z,9.35
2019-04-25T17:29:12.943Z,9.55
2019-04-25T17:31:51.374Z,9.68
2019-04-25T17:34:24.432Z,9.80
2019-04-25T17:36:54.391Z,9.73
2019-04-25T17:39:33.622Z,11.40
2019-04-25T17:42:02.046Z,10.75
2019-04-25T17:44:30.492Z,11.38
2019-04-25T17:47:06.139Z,11.85
2019-04-25T17:49:28.992Z,11.65
2019-04-25T17:51:57.662Z,10.88
2019-04-25T17:54:26.077Z,11.15
2019-04-25T17:56:54.525Z,10.43
2019-04-25T17:59:22.949Z,9.85
2019-04-25T18:01:52.326Z,10.50
2019-04-25T18:04:20.818Z,10.18
2019-04-25T18:06:49.255Z,9.50
2019-04-25T18:09:17.695Z,9.23
2019-04-25T18:11:46.173Z,11.18
2019-04-25T18:14:14.787Z,9.73
2019-04-25T18:16:47.814Z,10.50
2019-04-25T18:19:20.876Z,9.95
2019-04-25T18:21:49.424Z,10.75
2019-04-25T18:24:36.599Z,10.48
2019-04-25T18:27:09.706Z,9.88
2019-04-25T18:29:38.129Z,10.38
2019-04-25T18:32:06.576Z,9.73
2019-04-25T18:34:46.399Z,10.53
2019-04-25T18:37:32.940Z,11.88
2019-04-25T18:40:02.937Z,12.03
2019-04-25T18:42:44.772Z,10.13
2019-04-25T18:45:14.749Z,12.37
2019-04-25T18:47:43.196Z,10.40
2019-04-25T18:50:13.184Z,10.45
2019-04-25T18:52:43.204Z,10.30
2019-04-25T18:55:13.193Z,10.37
2019-04-25T18:57:44.137Z,11.10
2019-04-25T19:00:17.810Z,9.60
2019-04-25T19:02:57.633Z,10.68
2019-04-25T19:05:27.628Z,10.98
2019-04-25T19:07:56.999Z,10.90
2019-04-25T19:10:25.541Z,10.95
2019-04-25T19:12:53.986Z,10.30
2019-04-25T19:15:22.616Z,10.58
2019-04-25T19:17:52.090Z,11.18
2019-04-25T19:20:20.680Z,10.68
2019-04-25T19:22:49.105Z,10.15
2019-04-25T19:25:17.548Z,11.60
2019-04-25T19:27:46.556Z,10.63
2019-04-25T19:30:16.147Z,11.12
2019-04-25T19:32:44.961Z,12.75
2019-04-25T19:35:13.508Z,13.15
2019-04-25T19:37:42.338Z,13.70
2019-04-25T19:40:21.690Z,13.25
2019-04-25T19:42:57.707Z,14.90
2019-04-25T19:45:26.146Z,17.02
2019-04-25T19:47:54.556Z,15.18
2019-04-25T19:50:22.976Z,14.65
2019-04-25T19:52:52.440Z,13.10
2019-04-25T19:55:20.863Z,12.88
2019-04-25T19:57:50.267Z,11.75
2019-04-25T20:00:18.932Z,11.97
2019-04-25T20:03:00.520Z,10.90
2019-04-25T20:05:46.994Z,11.30
2019-04-25T20:08:25.800Z,11.38
2019-04-25T20:10:55.790Z,11.80
2019-04-25T20:13:24.224Z,12.53
2019-04-25T20:15:53.786Z,11.55
2019-04-25T20:18:22.321Z,12.18
2019-04-25T20:20:50.740Z,12.10
2019-04-25T20:23:25.071Z,10.78
2019-04-25T20:26:01.796Z,11.10
2019-04-25T20:28:32.488Z,11.68
2019-04-25T20:31:00.897Z,10.63
2019-04-25T20:33:29.322Z,11.03
2019-04-25T20:35:57.760Z,10.85
2019-04-25T20:38:26.204Z,11.18
2019-04-25T20:40:54.676Z,9.80
2019-04-25T20:43:24.742Z,10.35
2019-04-25T20:45:54.410Z,11.10
2019-04-25T20:48:23.805Z,10.68
2019-04-25T20:50:52.462Z,11.57
2019-04-25T20:53:20.972Z,11.55
2019-04-25T20:55:49.412Z,10.58
2019-04-25T20:58:17.828Z,10.32
2019-04-25T21:00:51.563Z,10.78
2019-04-25T21:03:20.047Z,10.93
2019-04-25T21:05:50.962Z,10.85
2019-04-25T21:08:24.419Z,10.65
2019-04-25T21:10:52.259Z,11.12
2019-04-25T21:13:22.253Z,11.05
2019-04-25T21:15:52.265Z,11.13
2019-04-25T21:18:22.275Z,11.13
2019-04-25T21:20:51.693Z,13.87
2019-04-25T21:23:20.532Z,13.18
2019-04-25T21:25:48.951Z,11.60
2019-04-25T21:28:17.410Z,11.73
2019-04-25T21:30:45.841Z,11.70
2019-04-25T21:33:14.380Z,11.93
2019-04-25T21:35:43.104Z,12.03
2019-04-25T21:38:11.846Z,11.75
2019-04-25T21:40:41.835Z,11.80
2019-04-25T21:43:12.144Z,12.07
2019-04-25T21:45:40.891Z,12.70
2019-04-25T21:48:09.620Z,12.78
2019-04-25T21:50:38.364Z,12.33
2019-04-25T21:53:07.210Z,11.93
2019-04-25T21:55:35.835Z,11.33
2019-04-25T21:58:04.496Z,12.00
2019-04-25T22:00:34.693Z,11.73
2019-04-25T22:03:04.420Z,12.07
2019-04-25T22:05:33.166Z,13.03
2019-04-25T22:08:02.606Z,13.70
2019-04-25T22:10:31.420Z,11.80
2019-04-25T22:13:11.421Z,12.82
2019-04-25T22:15:29.932Z,13.80
2019-04-25T22:17:58.664Z,12.88
2019-04-25T22:20:27.107Z,12.63
2019-04-25T22:22:56.010Z,12.80
2019-04-25T22:25:25.422Z,12.90
2019-04-25T22:27:54.345Z,11.85
2019-04-25T22:30:22.871Z,12.13
2019-04-25T22:33:02.305Z,12.80
2019-04-25T22:35:44.806Z,13.08
2019-04-25T22:38:13.536Z,12.50
2019-04-25T22:40:42.031Z,12.63
2019-04-25T22:43:10.832Z,14.47
2019-04-25T22:45:39.662Z,13.22
2019-04-25T22:48:08.692Z,13.40
2019-04-25T22:50:37.386Z,14.60
2019-04-25T22:53:06.220Z,14.05
2019-04-25T22:55:34.857Z,13.90
2019-04-25T22:58:03.725Z,14.85
2019-04-25T23:00:33.811Z,13.65
2019-04-25T23:03:07.326Z,13.75
2019-04-25T23:05:37.357Z,15.00
2019-04-25T23:08:06.100Z,12.93
2019-04-25T23:10:34.518Z,13.43
2019-04-25T23:13:03.333Z,12.85
2019-04-25T23:15:31.781Z,13.38
2019-04-25T23:18:00.434Z,13.03
2019-04-25T23:20:29.904Z,13.25
2019-04-25T23:22:58.360Z,13.78
2019-04-25T23:25:28.372Z,13.03
2019-04-25T23:27:58.358Z,13.83
2019-04-25T23:30:28.569Z,13.13
2019-04-25T23:32:56.988Z,12.50
2019-04-25T23:35:29.544Z,13.32
2019-04-25T23:37:55.500Z,13.03
2019-04-25T23:40:23.952Z,14.05
2019-04-25T23:42:52.673Z,13.20
2019-04-25T23:45:21.113Z,13.15
2019-04-25T23:47:49.537Z,13.65
2019-04-25T23:50:18.181Z,12.65
2019-04-25T23:52:46.604Z,13.70
2019-04-25T23:55:15.255Z,12.63
2019-04-25T23:57:43.679Z,12.68
